Terminal Aerodrome Forecast
Issued by NWS

Home | Current Version | Previous Version | Text Only | Print | Product List | Glossary On
Versions: 1 2 3 4 5 6 7 8 9 10 11 12 13 14 15 16 17 18 19
662
FTAK31 PAJN 101126
TAFAJN
TAF
PAJN 101126Z 1012/1112 12015KT P6SM FEW035 WS020/04035KT
     FM101900 08012G22KT P6SM FEW035 WS020/04035KT
     FM110200 09010KT P6SM SKC WS020/04035KT=

USA.gov is the U.S. government's official web portal to all federal, state and local government web resources and services.